• Join FlightAware (Why Join?)
  • Login
  • US Flag 
01:34PM EDT


 

Airport Tracker/Info


-or-


 

Live Flight TrackerFlight Track Log ✈ EJA729 ✈ 26-Jun-2013 ✈ KCDC - KASE

Flight Track Log - Related Links

Times and Time Zones

All times are in EDT time to prevent confusion due to time zone crossing. See the EJA729 flight status page for this flight to view local times or setup timezone preferences in your user account.

Time Position Orientation Groundspeed Altitude Reporting Facility
EDT Latitude Longitude Course Direction KTS MPH feet Rate Location/Type
05:46PM 37.6844 -113.1192 329° Northwest 160 184 6,600  Level Salt Lake Center
05:47PM 37.7228 -113.1483 329° Northwest 230 265 9,300 2,820 Climbing Salt Lake Center
05:48PM 37.7744 -113.0922 41° Northeast 238 274 12,500 3,120 Climbing Salt Lake Center
05:49PM 37.8103 -112.9756 69° East 297 342 15,800 2,460 Climbing Salt Lake Center
05:50PM 37.8419 -112.8572 71° East 341 392 17,700 1,920 Climbing Salt Lake Center
05:51PM 37.8808 -112.7228 70° East 390 449 19,800 1,980 Climbing Salt Lake Center
05:52PM 37.9203 -112.5808 71° East 418 481 21,800 1,920 Climbing Salt Lake Center
05:53PM 37.9608 -112.4328 71° East 439 505 23,800 1,920 Climbing Salt Lake Center
05:54PM 38.0017 -112.2803 71° East 454 522 25,800 1,800 Climbing Salt Lake Center
05:55PM 38.0450 -112.1264 70° East 460 529 27,600 1,740 Climbing Salt Lake Center
05:56PM 38.0969 -111.9336 71° East 475 547 29,400 1,560 Climbing Salt Lake Center
05:57PM 38.1403 -111.7708 71° East 484 557 30,900 1,440 Climbing Salt Lake Center
05:58PM 38.1831 -111.6053 72° East 492 566 32,400 1,440 Climbing Salt Lake Center
05:59PM 38.2256 -111.4414 72° East 489 563 33,900 1,200 Climbing Salt Lake Center
06:01PM 38.2642 -111.2781 73° East 484 557 35,000 480 Climbing Salt Lake Center
06:02PM 38.3028 -111.1089 74° East 496 571 35,000  Level Salt Lake Center
06:03PM 38.3456 -110.9186 74° East 509 586 35,000  Level Salt Lake Center
06:04PM 38.3886 -110.7258 74° East 509 586 35,000  Level Salt Lake Center
06:05PM 38.4264 -110.5611 74° East 507 583 35,000  Level Salt Lake Center
06:06PM 38.4689 -110.3675 74° East 507 583 35,000  Level Salt Lake Center
06:07PM 38.5111 -110.1739 74° East 507 583 35,000  Level Denver Center
06:08PM 38.5481 -110.0094 74° East 506 582 35,000  Level Denver Center
06:09PM 38.5828 -109.8431 75° East 506 582 35,000  Level Denver Center
06:10PM 38.6225 -109.6600 74° East 479 551 35,000  Level Denver Center
06:11PM 38.6711 -109.5294 64° Northeast 429 494 35,000 -300 Level Denver Center
06:12PM 38.7467 -109.3986 53° Northeast 411 473 34,400 -1,260 Descending Denver Center
06:13PM 38.8147 -109.2783 54° Northeast 435 501 32,400 -2,100 Descending Denver Center
06:14PM 38.8872 -109.1356 57° Northeast 427 491 30,100 -2,040 Descending Denver Center
06:15PM 38.9303 -109.0097 66° East 411 473 28,200 -1,500 Descending Denver Center
06:16PM 38.9483 -108.8475 82° East 412 474 27,000 -600 Descending Denver Center
06:17PM 38.9625 -108.7114 82° East 407 468 27,000  Level Denver Center
06:18PM 38.9797 -108.5453 82° East 420 483 27,000  Level Denver Center
06:19PM 38.9953 -108.3978 82° East 435 501 27,000  Level Denver Center
06:20PM 39.0133 -108.2136 83° East 466 536 27,000  Level Denver Center
06:21PM 39.0308 -108.0467 82° East 491 565 27,000 -780 Level Denver Center
06:22PM 39.0494 -107.8486 83° East 499 574 25,400 -1,440 Descending Denver Center
06:23PM 39.0658 -107.6856 83° East 486 559 24,100 -1,260 Descending Denver Center
06:24PM 39.0853 -107.4944 82° East 484 557 22,800 -1,020 Descending Denver Center
06:25PM 39.1172 -107.3467 74° East 466 536 22,000 -900 Descending Denver Center
06:26PM 39.2139 -107.2300 43° Northeast 427 491 21,000 -1,200 Descending Denver Center
06:27PM 39.3108 -107.1847 20° North 386 444 19,600 -2,040 Descending Denver Center
06:29PM 39.4175 -107.1331 21° North 375 432 16,800 -1,860 Descending Denver Center
06:30PM 39.4792 -107.0611 42° Northeast 334 384 15,800 -780 Descending Denver Center
06:31PM 39.4550 -106.9775 110° East 263 303 15,200 -1,440 Descending Denver Center
06:32PM 39.3869 -106.9489 162° South 255 293 12,900 -2,400 Descending Denver Center
06:33PM 39.3228 -106.9181 160° South 252 290 10,300 -2,160 Descending Denver Center
06:34PM 39.2814 -106.8972 159° South 228 262 8,500 -1,800 Descending Denver Center